sensor_id;sensor_type;location;lat;lon;timestamp;P1;durP1;ratioP1;P2;durP2;ratioP2
5965;SDS011;3009;43.224;27.976;2024-03-06T00:01:00;9.30;;;5.00;;
5965;SDS011;3009;43.224;27.976;2024-03-06T00:03:28;7.53;;;4.90;;
5965;SDS011;3009;43.224;27.976;2024-03-06T00:05:56;7.00;;;5.20;;
5965;SDS011;3009;43.224;27.976;2024-03-06T00:08:25;9.10;;;5.80;;
5965;SDS011;3009;43.224;27.976;2024-03-06T00:10:54;4.60;;;4.20;;
5965;SDS011;3009;43.224;27.976;2024-03-06T00:13:23;9.87;;;4.63;;
5965;SDS011;3009;43.224;27.976;2024-03-06T00:15:51;12.90;;;5.17;;
5965;SDS011;3009;43.224;27.976;2024-03-06T00:18:21;11.43;;;4.80;;
5965;SDS011;3009;43.224;27.976;2024-03-06T00:20:49;8.70;;;5.10;;
5965;SDS011;3009;43.224;27.976;2024-03-06T00:23:18;8.13;;;4.50;;
5965;SDS011;3009;43.224;27.976;2024-03-06T00:25:47;7.90;;;4.80;;
5965;SDS011;3009;43.224;27.976;2024-03-06T00:28:16;9.00;;;5.50;;
5965;SDS011;3009;43.224;27.976;2024-03-06T00:30:44;9.90;;;6.03;;
5965;SDS011;3009;43.224;27.976;2024-03-06T00:33:13;10.20;;;4.90;;
5965;SDS011;3009;43.224;27.976;2024-03-06T00:35:43;8.80;;;5.50;;
5965;SDS011;3009;43.224;27.976;2024-03-06T00:38:12;9.80;;;6.47;;
5965;SDS011;3009;43.224;27.976;2024-03-06T00:40:41;6.60;;;5.73;;
5965;SDS011;3009;43.224;27.976;2024-03-06T00:43:10;17.93;;;6.83;;
5965;SDS011;3009;43.224;27.976;2024-03-06T00:45:38;7.93;;;6.57;;
5965;SDS011;3009;43.224;27.976;2024-03-06T00:48:07;10.13;;;6.77;;
5965;SDS011;3009;43.224;27.976;2024-03-06T00:50:35;8.87;;;6.47;;
5965;SDS011;3009;43.224;27.976;2024-03-06T00:53:05;10.93;;;7.20;;
5965;SDS011;3009;43.224;27.976;2024-03-06T00:55:34;10.60;;;7.20;;
5965;SDS011;3009;43.224;27.976;2024-03-06T00:58:03;12.07;;;7.43;;
5965;SDS011;3009;43.224;27.976;2024-03-06T01:00:33;11.23;;;7.07;;
5965;SDS011;3009;43.224;27.976;2024-03-06T01:03:01;12.37;;;7.83;;
5965;SDS011;3009;43.224;27.976;2024-03-06T01:05:30;19.40;;;8.93;;
5965;SDS011;3009;43.224;27.976;2024-03-06T01:07:59;21.40;;;8.80;;
5965;SDS011;3009;43.224;27.976;2024-03-06T01:10:29;12.20;;;7.80;;
5965;SDS011;3009;43.224;27.976;2024-03-06T01:12:57;18.47;;;8.77;;
5965;SDS011;3009;43.224;27.976;2024-03-06T01:15:26;21.90;;;8.87;;
5965;SDS011;3009;43.224;27.976;2024-03-06T01:17:54;15.57;;;9.10;;
5965;SDS011;3009;43.224;27.976;2024-03-06T01:20:24;14.60;;;8.27;;
5965;SDS011;3009;43.224;27.976;2024-03-06T01:22:52;14.60;;;9.20;;
5965;SDS011;3009;43.224;27.976;2024-03-06T01:25:21;16.17;;;8.73;;
5965;SDS011;3009;43.224;27.976;2024-03-06T01:27:52;21.60;;;9.70;;
5965;SDS011;3009;43.224;27.976;2024-03-06T01:30:20;13.40;;;9.13;;
5965;SDS011;3009;43.224;27.976;2024-03-06T01:32:49;15.63;;;9.03;;
5965;SDS011;3009;43.224;27.976;2024-03-06T01:35:18;15.17;;;9.63;;
5965;SDS011;3009;43.224;27.976;2024-03-06T01:37:46;19.50;;;9.57;;
5965;SDS011;3009;43.224;27.976;2024-03-06T01:40:15;13.20;;;9.80;;
5965;SDS011;3009;43.224;27.976;2024-03-06T01:42:43;12.33;;;8.30;;
5965;SDS011;3009;43.224;27.976;2024-03-06T01:45:15;24.67;;;9.97;;
5965;SDS011;3009;43.224;27.976;2024-03-06T01:47:43;18.10;;;9.50;;
5965;SDS011;3009;43.224;27.976;2024-03-06T01:50:12;14.60;;;9.87;;
5965;SDS011;3009;43.224;27.976;2024-03-06T01:52:41;15.40;;;10.10;;
5965;SDS011;3009;43.224;27.976;2024-03-06T01:55:11;19.33;;;9.40;;
5965;SDS011;3009;43.224;27.976;2024-03-06T01:57:41;15.43;;;10.00;;
5965;SDS011;3009;43.224;27.976;2024-03-06T02:00:10;20.47;;;9.70;;
5965;SDS011;3009;43.224;27.976;2024-03-06T02:02:42;15.93;;;9.47;;
5965;SDS011;3009;43.224;27.976;2024-03-06T02:05:11;13.70;;;9.07;;
5965;SDS011;3009;43.224;27.976;2024-03-06T02:07:40;20.50;;;9.50;;
5965;SDS011;3009;43.224;27.976;2024-03-06T02:10:10;18.10;;;9.80;;
5965;SDS011;3009;43.224;27.976;2024-03-06T02:12:39;19.27;;;10.60;;
5965;SDS011;3009;43.224;27.976;2024-03-06T02:15:08;17.07;;;10.40;;
5965;SDS011;3009;43.224;27.976;2024-03-06T02:17:40;17.80;;;10.63;;
5965;SDS011;3009;43.224;27.976;2024-03-06T02:20:11;16.47;;;10.20;;
5965;SDS011;3009;43.224;27.976;2024-03-06T02:22:42;18.83;;;8.83;;
5965;SDS011;3009;43.224;27.976;2024-03-06T02:25:11;13.37;;;8.60;;
5965;SDS011;3009;43.224;27.976;2024-03-06T02:27:41;15.87;;;9.27;;
5965;SDS011;3009;43.224;27.976;2024-03-06T02:30:11;17.27;;;8.20;;
5965;SDS011;3009;43.224;27.976;2024-03-06T02:32:40;23.43;;;10.63;;
5965;SDS011;3009;43.224;27.976;2024-03-06T02:35:10;18.40;;;8.30;;
5965;SDS011;3009;43.224;27.976;2024-03-06T02:37:40;14.63;;;8.90;;
5965;SDS011;3009;43.224;27.976;2024-03-06T02:40:11;19.13;;;10.07;;
5965;SDS011;3009;43.224;27.976;2024-03-06T02:42:40;20.30;;;9.67;;
5965;SDS011;3009;43.224;27.976;2024-03-06T02:45:08;17.90;;;9.80;;
5965;SDS011;3009;43.224;27.976;2024-03-06T02:47:37;19.10;;;9.57;;
5965;SDS011;3009;43.224;27.976;2024-03-06T02:50:06;15.57;;;10.00;;
5965;SDS011;3009;43.224;27.976;2024-03-06T02:52:36;12.30;;;9.10;;
5965;SDS011;3009;43.224;27.976;2024-03-06T02:55:06;15.20;;;8.17;;
5965;SDS011;3009;43.224;27.976;2024-03-06T02:57:35;18.70;;;9.67;;
5965;SDS011;3009;43.224;27.976;2024-03-06T03:00:03;16.80;;;9.57;;
5965;SDS011;3009;43.224;27.976;2024-03-06T03:02:35;17.60;;;10.00;;
5965;SDS011;3009;43.224;27.976;2024-03-06T03:05:04;23.70;;;9.97;;
5965;SDS011;3009;43.224;27.976;2024-03-06T03:07:33;14.77;;;8.80;;
5965;SDS011;3009;43.224;27.976;2024-03-06T03:10:02;17.87;;;10.27;;
5965;SDS011;3009;43.224;27.976;2024-03-06T03:12:32;16.80;;;9.60;;
5965;SDS011;3009;43.224;27.976;2024-03-06T03:15:01;22.93;;;10.30;;
5965;SDS011;3009;43.224;27.976;2024-03-06T03:17:29;20.33;;;9.97;;
5965;SDS011;3009;43.224;27.976;2024-03-06T03:19:58;16.83;;;9.40;;
5965;SDS011;3009;43.224;27.976;2024-03-06T03:22:26;17.27;;;10.30;;
5965;SDS011;3009;43.224;27.976;2024-03-06T03:24:55;20.67;;;11.07;;
5965;SDS011;3009;43.224;27.976;2024-03-06T03:27:23;17.37;;;10.80;;
5965;SDS011;3009;43.224;27.976;2024-03-06T03:29:53;21.67;;;11.90;;
5965;SDS011;3009;43.224;27.976;2024-03-06T03:32:21;18.17;;;10.90;;
5965;SDS011;3009;43.224;27.976;2024-03-06T03:34:50;17.50;;;10.10;;
5965;SDS011;3009;43.224;27.976;2024-03-06T03:37:18;18.50;;;11.20;;
5965;SDS011;3009;43.224;27.976;2024-03-06T03:39:47;17.80;;;11.60;;
5965;SDS011;3009;43.224;27.976;2024-03-06T03:42:16;20.47;;;11.93;;
5965;SDS011;3009;43.224;27.976;2024-03-06T03:44:44;24.67;;;12.77;;
5965;SDS011;3009;43.224;27.976;2024-03-06T03:47:14;18.50;;;12.07;;
5965;SDS011;3009;43.224;27.976;2024-03-06T03:49:42;19.37;;;11.30;;
5965;SDS011;3009;43.224;27.976;2024-03-06T03:52:16;24.03;;;11.23;;
5965;SDS011;3009;43.224;27.976;2024-03-06T03:54:44;23.17;;;11.10;;
5965;SDS011;3009;43.224;27.976;2024-03-06T03:57:13;21.90;;;10.07;;
5965;SDS011;3009;43.224;27.976;2024-03-06T03:59:41;19.47;;;11.13;;
5965;SDS011;3009;43.224;27.976;2024-03-06T04:02:10;25.57;;;11.93;;
5965;SDS011;3009;43.224;27.976;2024-03-06T04:04:40;21.60;;;12.00;;
5965;SDS011;3009;43.224;27.976;2024-03-06T04:07:08;20.27;;;11.20;;
5965;SDS011;3009;43.224;27.976;2024-03-06T04:09:37;17.70;;;9.60;;
5965;SDS011;3009;43.224;27.976;2024-03-06T04:12:05;17.60;;;10.60;;
5965;SDS011;3009;43.224;27.976;2024-03-06T04:14:34;18.00;;;10.57;;
5965;SDS011;3009;43.224;27.976;2024-03-06T04:17:02;18.13;;;11.37;;
5965;SDS011;3009;43.224;27.976;2024-03-06T04:19:31;17.90;;;11.00;;
5965;SDS011;3009;43.224;27.976;2024-03-06T04:22:01;25.10;;;11.73;;
5965;SDS011;3009;43.224;27.976;2024-03-06T04:24:30;20.70;;;12.17;;
5965;SDS011;3009;43.224;27.976;2024-03-06T04:26:58;30.40;;;12.10;;
5965;SDS011;3009;43.224;27.976;2024-03-06T04:29:26;19.57;;;13.90;;
5965;SDS011;3009;43.224;27.976;2024-03-06T04:31:55;21.47;;;11.87;;
5965;SDS011;3009;43.224;27.976;2024-03-06T04:34:29;22.57;;;11.83;;
5965;SDS011;3009;43.224;27.976;2024-03-06T04:36:58;35.17;;;11.70;;
5965;SDS011;3009;43.224;27.976;2024-03-06T04:39:28;17.63;;;11.17;;
5965;SDS011;3009;43.224;27.976;2024-03-06T04:41:56;16.10;;;10.20;;
5965;SDS011;3009;43.224;27.976;2024-03-06T04:44:25;18.73;;;10.77;;
5965;SDS011;3009;43.224;27.976;2024-03-06T04:46:53;17.83;;;10.50;;
5965;SDS011;3009;43.224;27.976;2024-03-06T04:49:22;23.17;;;9.23;;
5965;SDS011;3009;43.224;27.976;2024-03-06T04:51:51;16.60;;;10.30;;
5965;SDS011;3009;43.224;27.976;2024-03-06T04:54:19;14.13;;;8.80;;
5965;SDS011;3009;43.224;27.976;2024-03-06T04:56:49;14.87;;;9.50;;
5965;SDS011;3009;43.224;27.976;2024-03-06T04:59:17;15.17;;;9.50;;
5965;SDS011;3009;43.224;27.976;2024-03-06T05:01:46;12.93;;;8.47;;
5965;SDS011;3009;43.224;27.976;2024-03-06T05:04:14;11.50;;;7.90;;
5965;SDS011;3009;43.224;27.976;2024-03-06T05:07:00;12.47;;;8.40;;
5965;SDS011;3009;43.224;27.976;2024-03-06T05:09:46;17.90;;;9.60;;
5965;SDS011;3009;43.224;27.976;2024-03-06T05:12:33;14.20;;;9.80;;
5965;SDS011;3009;43.224;27.976;2024-03-06T05:15:19;14.47;;;8.63;;
5965;SDS011;3009;43.224;27.976;2024-03-06T05:18:05;17.63;;;9.40;;
5965;SDS011;3009;43.224;27.976;2024-03-06T05:20:51;21.40;;;10.23;;
5965;SDS011;3009;43.224;27.976;2024-03-06T05:23:38;16.63;;;9.73;;
5965;SDS011;3009;43.224;27.976;2024-03-06T05:26:24;16.13;;;10.47;;
5965;SDS011;3009;43.224;27.976;2024-03-06T05:29:11;11.23;;;9.00;;
5965;SDS011;3009;43.224;27.976;2024-03-06T05:31:57;14.80;;;9.83;;
5965;SDS011;3009;43.224;27.976;2024-03-06T05:34:42;20.03;;;9.47;;
5965;SDS011;3009;43.224;27.976;2024-03-06T05:37:28;16.73;;;10.03;;
5965;SDS011;3009;43.224;27.976;2024-03-06T05:40:14;18.90;;;9.90;;
5965;SDS011;3009;43.224;27.976;2024-03-06T05:43:00;14.73;;;9.37;;
5965;SDS011;3009;43.224;27.976;2024-03-06T05:45:47;16.07;;;10.03;;
5965;SDS011;3009;43.224;27.976;2024-03-06T05:48:33;22.77;;;10.43;;
5965;SDS011;3009;43.224;27.976;2024-03-06T05:51:19;14.77;;;10.13;;
5965;SDS011;3009;43.224;27.976;2024-03-06T05:54:05;17.77;;;9.83;;
5965;SDS011;3009;43.224;27.976;2024-03-06T05:56:52;17.40;;;10.20;;
5965;SDS011;3009;43.224;27.976;2024-03-06T05:59:38;14.73;;;8.37;;
5965;SDS011;3009;43.224;27.976;2024-03-06T06:02:08;14.70;;;9.00;;
5965;SDS011;3009;43.224;27.976;2024-03-06T06:04:36;15.57;;;9.10;;
5965;SDS011;3009;43.224;27.976;2024-03-06T06:07:17;17.37;;;9.30;;
5965;SDS011;3009;43.224;27.976;2024-03-06T06:09:45;16.00;;;10.03;;
5965;SDS011;3009;43.224;27.976;2024-03-06T06:12:14;18.00;;;10.30;;
5965;SDS011;3009;43.224;27.976;2024-03-06T06:14:42;13.77;;;9.60;;
5965;SDS011;3009;43.224;27.976;2024-03-06T06:17:12;15.73;;;9.50;;
5965;SDS011;3009;43.224;27.976;2024-03-06T06:19:42;24.30;;;9.30;;
5965;SDS011;3009;43.224;27.976;2024-03-06T06:22:10;18.37;;;8.93;;
5965;SDS011;3009;43.224;27.976;2024-03-06T06:24:39;15.10;;;10.13;;
5965;SDS011;3009;43.224;27.976;2024-03-06T06:27:12;15.10;;;9.03;;
5965;SDS011;3009;43.224;27.976;2024-03-06T06:29:41;14.37;;;7.93;;
5965;SDS011;3009;43.224;27.976;2024-03-06T06:32:09;12.73;;;8.87;;
5965;SDS011;3009;43.224;27.976;2024-03-06T06:34:39;12.87;;;8.37;;
5965;SDS011;3009;43.224;27.976;2024-03-06T06:37:07;16.80;;;8.10;;
5965;SDS011;3009;43.224;27.976;2024-03-06T06:39:36;12.53;;;8.10;;
5965;SDS011;3009;43.224;27.976;2024-03-06T06:42:05;15.20;;;7.73;;
5965;SDS011;3009;43.224;27.976;2024-03-06T06:44:33;18.97;;;8.10;;
5965;SDS011;3009;43.224;27.976;2024-03-06T06:47:02;12.90;;;8.73;;
5965;SDS011;3009;43.224;27.976;2024-03-06T06:49:30;14.00;;;7.70;;
5965;SDS011;3009;43.224;27.976;2024-03-06T06:52:01;10.40;;;7.03;;
5965;SDS011;3009;43.224;27.976;2024-03-06T06:54:29;9.27;;;6.97;;
5965;SDS011;3009;43.224;27.976;2024-03-06T06:56:58;15.67;;;7.17;;
5965;SDS011;3009;43.224;27.976;2024-03-06T06:59:26;14.90;;;7.73;;
5965;SDS011;3009;43.224;27.976;2024-03-06T07:01:55;9.47;;;7.03;;
5965;SDS011;3009;43.224;27.976;2024-03-06T07:04:23;12.27;;;7.37;;
5965;SDS011;3009;43.224;27.976;2024-03-06T07:06:52;17.80;;;8.67;;
5965;SDS011;3009;43.224;27.976;2024-03-06T07:09:21;14.23;;;8.40;;
5965;SDS011;3009;43.224;27.976;2024-03-06T07:11:50;11.43;;;7.80;;
5965;SDS011;3009;43.224;27.976;2024-03-06T07:14:18;10.53;;;6.70;;
5965;SDS011;3009;43.224;27.976;2024-03-06T07:16:47;12.40;;;7.90;;
5965;SDS011;3009;43.224;27.976;2024-03-06T07:19:15;10.53;;;6.30;;
5965;SDS011;3009;43.224;27.976;2024-03-06T07:21:44;15.10;;;7.33;;
5965;SDS011;3009;43.224;27.976;2024-03-06T07:24:12;9.67;;;7.40;;
5965;SDS011;3009;43.224;27.976;2024-03-06T07:26:43;11.43;;;7.37;;
5965;SDS011;3009;43.224;27.976;2024-03-06T07:29:11;9.93;;;7.00;;
5965;SDS011;3009;43.224;27.976;2024-03-06T07:31:42;8.70;;;7.10;;
5965;SDS011;3009;43.224;27.976;2024-03-06T07:34:11;17.80;;;7.37;;
5965;SDS011;3009;43.224;27.976;2024-03-06T07:36:41;14.73;;;6.70;;
5965;SDS011;3009;43.224;27.976;2024-03-06T07:39:09;8.90;;;7.47;;
5965;SDS011;3009;43.224;27.976;2024-03-06T07:41:38;16.13;;;7.57;;
5965;SDS011;3009;43.224;27.976;2024-03-06T07:44:08;10.57;;;6.73;;
5965;SDS011;3009;43.224;27.976;2024-03-06T07:46:37;14.47;;;7.47;;
5965;SDS011;3009;43.224;27.976;2024-03-06T07:49:06;12.10;;;7.83;;
5965;SDS011;3009;43.224;27.976;2024-03-06T07:51:34;14.43;;;7.67;;
5965;SDS011;3009;43.224;27.976;2024-03-06T07:54:03;15.43;;;7.00;;
5965;SDS011;3009;43.224;27.976;2024-03-06T07:56:31;10.30;;;8.20;;
5965;SDS011;3009;43.224;27.976;2024-03-06T07:59:00;12.93;;;6.93;;
5965;SDS011;3009;43.224;27.976;2024-03-06T08:01:30;13.80;;;7.00;;
5965;SDS011;3009;43.224;27.976;2024-03-06T08:03:59;14.50;;;7.90;;
5965;SDS011;3009;43.224;27.976;2024-03-06T08:06:28;15.17;;;7.70;;
5965;SDS011;3009;43.224;27.976;2024-03-06T08:08:58;13.23;;;6.90;;
5965;SDS011;3009;43.224;27.976;2024-03-06T08:11:29;13.73;;;7.30;;
5965;SDS011;3009;43.224;27.976;2024-03-06T08:13:57;12.60;;;7.40;;
5965;SDS011;3009;43.224;27.976;2024-03-06T08:16:27;17.37;;;7.50;;
5965;SDS011;3009;43.224;27.976;2024-03-06T08:19:02;10.77;;;7.23;;
5965;SDS011;3009;43.224;27.976;2024-03-06T08:21:30;9.83;;;6.90;;
5965;SDS011;3009;43.224;27.976;2024-03-06T08:23:59;10.70;;;6.83;;
5965;SDS011;3009;43.224;27.976;2024-03-06T08:26:27;10.40;;;6.83;;
5965;SDS011;3009;43.224;27.976;2024-03-06T08:28:56;10.03;;;6.90;;
5965;SDS011;3009;43.224;27.976;2024-03-06T08:31:24;13.10;;;6.60;;
5965;SDS011;3009;43.224;27.976;2024-03-06T08:33:55;9.37;;;7.60;;
5965;SDS011;3009;43.224;27.976;2024-03-06T08:36:23;8.10;;;6.80;;
5965;SDS011;3009;43.224;27.976;2024-03-06T08:38:52;7.77;;;5.33;;
5965;SDS011;3009;43.224;27.976;2024-03-06T08:41:20;18.13;;;6.80;;
5965;SDS011;3009;43.224;27.976;2024-03-06T08:43:49;11.00;;;6.50;;
5965;SDS011;3009;43.224;27.976;2024-03-06T08:46:18;9.47;;;6.90;;
5965;SDS011;3009;43.224;27.976;2024-03-06T08:48:46;12.03;;;6.13;;
5965;SDS011;3009;43.224;27.976;2024-03-06T08:51:16;9.20;;;7.10;;
5965;SDS011;3009;43.224;27.976;2024-03-06T08:53:44;12.10;;;6.87;;
5965;SDS011;3009;43.224;27.976;2024-03-06T08:56:14;8.63;;;5.60;;
5965;SDS011;3009;43.224;27.976;2024-03-06T08:58:43;13.83;;;6.13;;
5965;SDS011;3009;43.224;27.976;2024-03-06T09:01:11;10.97;;;7.00;;
5965;SDS011;3009;43.224;27.976;2024-03-06T09:03:41;9.27;;;7.10;;
5965;SDS011;3009;43.224;27.976;2024-03-06T09:06:09;14.20;;;6.90;;
5965;SDS011;3009;43.224;27.976;2024-03-06T09:08:40;11.03;;;6.10;;
5965;SDS011;3009;43.224;27.976;2024-03-06T09:11:09;13.43;;;7.90;;
5965;SDS011;3009;43.224;27.976;2024-03-06T09:13:38;14.07;;;7.03;;
5965;SDS011;3009;43.224;27.976;2024-03-06T09:16:07;14.67;;;6.83;;
5965;SDS011;3009;43.224;27.976;2024-03-06T09:18:35;8.97;;;6.50;;
5965;SDS011;3009;43.224;27.976;2024-03-06T09:21:04;13.80;;;7.93;;
5965;SDS011;3009;43.224;27.976;2024-03-06T09:23:33;15.27;;;7.53;;
5965;SDS011;3009;43.224;27.976;2024-03-06T09:26:03;17.20;;;6.70;;
5965;SDS011;3009;43.224;27.976;2024-03-06T09:28:32;19.80;;;7.03;;
5965;SDS011;3009;43.224;27.976;2024-03-06T09:31:01;14.47;;;7.07;;
5965;SDS011;3009;43.224;27.976;2024-03-06T09:33:29;9.93;;;7.23;;
5965;SDS011;3009;43.224;27.976;2024-03-06T09:35:58;12.00;;;8.07;;
5965;SDS011;3009;43.224;27.976;2024-03-06T09:38:26;12.23;;;6.80;;
5965;SDS011;3009;43.224;27.976;2024-03-06T09:40:55;15.03;;;7.30;;
5965;SDS011;3009;43.224;27.976;2024-03-06T09:43:26;15.70;;;6.73;;
5965;SDS011;3009;43.224;27.976;2024-03-06T09:45:57;18.13;;;7.57;;
5965;SDS011;3009;43.224;27.976;2024-03-06T09:48:27;11.90;;;6.73;;
5965;SDS011;3009;43.224;27.976;2024-03-06T09:50:57;10.23;;;7.17;;
5965;SDS011;3009;43.224;27.976;2024-03-06T09:53:29;15.43;;;8.33;;
5965;SDS011;3009;43.224;27.976;2024-03-06T09:55:58;11.40;;;6.40;;
5965;SDS011;3009;43.224;27.976;2024-03-06T09:58:29;8.33;;;6.67;;
5965;SDS011;3009;43.224;27.976;2024-03-06T10:00:58;12.63;;;8.10;;
5965;SDS011;3009;43.224;27.976;2024-03-06T10:03:30;7.90;;;6.30;;
5965;SDS011;3009;43.224;27.976;2024-03-06T10:05:58;10.83;;;7.50;;
5965;SDS011;3009;43.224;27.976;2024-03-06T10:08:33;15.60;;;7.97;;
5965;SDS011;3009;43.224;27.976;2024-03-06T10:11:02;11.47;;;8.50;;
5965;SDS011;3009;43.224;27.976;2024-03-06T10:13:32;12.57;;;7.43;;
5965;SDS011;3009;43.224;27.976;2024-03-06T10:16:01;13.70;;;6.83;;
5965;SDS011;3009;43.224;27.976;2024-03-06T10:18:31;14.00;;;7.43;;
5965;SDS011;3009;43.224;27.976;2024-03-06T10:20:59;11.30;;;7.10;;
5965;SDS011;3009;43.224;27.976;2024-03-06T10:23:28;17.90;;;8.30;;
5965;SDS011;3009;43.224;27.976;2024-03-06T10:25:56;11.77;;;7.40;;
5965;SDS011;3009;43.224;27.976;2024-03-06T10:28:25;17.87;;;8.23;;
5965;SDS011;3009;43.224;27.976;2024-03-06T10:31:02;13.57;;;8.30;;
5965;SDS011;3009;43.224;27.976;2024-03-06T10:33:34;12.40;;;8.73;;
5965;SDS011;3009;43.224;27.976;2024-03-06T10:36:04;12.00;;;8.57;;
5965;SDS011;3009;43.224;27.976;2024-03-06T10:38:34;12.40;;;8.37;;
5965;SDS011;3009;43.224;27.976;2024-03-06T10:41:08;17.67;;;10.10;;
5965;SDS011;3009;43.224;27.976;2024-03-06T10:43:42;12.00;;;8.30;;
5965;SDS011;3009;43.224;27.976;2024-03-06T10:46:18;9.90;;;8.43;;
5965;SDS011;3009;43.224;27.976;2024-03-06T10:48:48;12.40;;;8.50;;
5965;SDS011;3009;43.224;27.976;2024-03-06T10:51:16;16.73;;;9.80;;
5965;SDS011;3009;43.224;27.976;2024-03-06T10:53:46;12.10;;;8.60;;
5965;SDS011;3009;43.224;27.976;2024-03-06T10:56:16;11.33;;;8.37;;
5965;SDS011;3009;43.224;27.976;2024-03-06T10:58:46;13.60;;;8.90;;
5965;SDS011;3009;43.224;27.976;2024-03-06T11:01:20;10.90;;;8.40;;
5965;SDS011;3009;43.224;27.976;2024-03-06T11:03:49;13.77;;;8.70;;
5965;SDS011;3009;43.224;27.976;2024-03-06T11:06:18;25.33;;;8.80;;
5965;SDS011;3009;43.224;27.976;2024-03-06T11:08:46;13.43;;;8.20;;
5965;SDS011;3009;43.224;27.976;2024-03-06T11:11:19;13.37;;;8.03;;
5965;SDS011;3009;43.224;27.976;2024-03-06T11:13:47;16.87;;;9.27;;
5965;SDS011;3009;43.224;27.976;2024-03-06T11:16:16;12.53;;;8.30;;
5965;SDS011;3009;43.224;27.976;2024-03-06T11:18:45;10.83;;;8.60;;
5965;SDS011;3009;43.224;27.976;2024-03-06T11:21:30;14.93;;;8.83;;
5965;SDS011;3009;43.224;27.976;2024-03-06T11:27:01;17.13;;;9.30;;
5965;SDS011;3009;43.224;27.976;2024-03-06T11:32:37;18.73;;;8.73;;
5965;SDS011;3009;43.224;27.976;2024-03-06T11:35:27;14.40;;;9.30;;
5965;SDS011;3009;43.224;27.976;2024-03-06T11:37:55;13.00;;;9.87;;
5965;SDS011;3009;43.224;27.976;2024-03-06T11:40:24;28.97;;;12.80;;
5965;SDS011;3009;43.224;27.976;2024-03-06T11:42:53;19.47;;;10.53;;
5965;SDS011;3009;43.224;27.976;2024-03-06T11:45:22;25.97;;;11.97;;
5965;SDS011;3009;43.224;27.976;2024-03-06T11:47:55;13.80;;;9.50;;
5965;SDS011;3009;43.224;27.976;2024-03-06T11:50:27;21.30;;;11.53;;
5965;SDS011;3009;43.224;27.976;2024-03-06T11:52:56;15.63;;;9.33;;
5965;SDS011;3009;43.224;27.976;2024-03-06T11:55:25;25.20;;;9.90;;
5965;SDS011;3009;43.224;27.976;2024-03-06T11:57:54;16.23;;;9.90;;
5965;SDS011;3009;43.224;27.976;2024-03-06T12:00:22;14.07;;;9.03;;
5965;SDS011;3009;43.224;27.976;2024-03-06T12:02:51;19.17;;;11.20;;
5965;SDS011;3009;43.224;27.976;2024-03-06T12:05:19;15.87;;;9.80;;
5965;SDS011;3009;43.224;27.976;2024-03-06T12:07:50;21.33;;;10.43;;
5965;SDS011;3009;43.224;27.976;2024-03-06T12:10:19;17.33;;;10.27;;
5965;SDS011;3009;43.224;27.976;2024-03-06T12:12:48;17.87;;;11.17;;
5965;SDS011;3009;43.224;27.976;2024-03-06T12:15:16;20.03;;;10.37;;
5965;SDS011;3009;43.224;27.976;2024-03-06T12:17:46;23.57;;;10.67;;
5965;SDS011;3009;43.224;27.976;2024-03-06T12:20:17;14.17;;;9.63;;
5965;SDS011;3009;43.224;27.976;2024-03-06T12:22:49;13.80;;;10.40;;
5965;SDS011;3009;43.224;27.976;2024-03-06T12:25:18;20.20;;;11.20;;
5965;SDS011;3009;43.224;27.976;2024-03-06T12:27:49;13.33;;;8.83;;
5965;SDS011;3009;43.224;27.976;2024-03-06T12:30:18;18.83;;;12.87;;
5965;SDS011;3009;43.224;27.976;2024-03-06T12:32:56;12.17;;;9.13;;
5965;SDS011;3009;43.224;27.976;2024-03-06T12:35:25;17.87;;;10.03;;
5965;SDS011;3009;43.224;27.976;2024-03-06T12:37:55;16.50;;;9.90;;
5965;SDS011;3009;43.224;27.976;2024-03-06T12:40:24;14.97;;;10.93;;
5965;SDS011;3009;43.224;27.976;2024-03-06T12:42:55;20.90;;;11.33;;
5965;SDS011;3009;43.224;27.976;2024-03-06T12:45:23;20.33;;;11.90;;
5965;SDS011;3009;43.224;27.976;2024-03-06T12:47:51;20.03;;;11.43;;
5965;SDS011;3009;43.224;27.976;2024-03-06T12:50:22;21.10;;;12.50;;
5965;SDS011;3009;43.224;27.976;2024-03-06T12:52:51;23.23;;;11.83;;
5965;SDS011;3009;43.224;27.976;2024-03-06T12:55:21;16.90;;;11.10;;
5965;SDS011;3009;43.224;27.976;2024-03-06T12:57:50;27.23;;;11.30;;
5965;SDS011;3009;43.224;27.976;2024-03-06T13:00:18;19.93;;;12.27;;
5965;SDS011;3009;43.224;27.976;2024-03-06T13:02:47;24.03;;;12.60;;
5965;SDS011;3009;43.224;27.976;2024-03-06T13:05:17;23.60;;;13.07;;
5965;SDS011;3009;43.224;27.976;2024-03-06T13:07:46;28.20;;;12.40;;
5965;SDS011;3009;43.224;27.976;2024-03-06T13:10:14;19.40;;;11.20;;
5965;SDS011;3009;43.224;27.976;2024-03-06T13:12:44;18.33;;;10.67;;
5965;SDS011;3009;43.224;27.976;2024-03-06T13:15:13;21.00;;;10.47;;
5965;SDS011;3009;43.224;27.976;2024-03-06T13:17:42;21.63;;;12.07;;
5965;SDS011;3009;43.224;27.976;2024-03-06T13:20:11;22.93;;;12.67;;
5965;SDS011;3009;43.224;27.976;2024-03-06T13:22:39;14.83;;;11.27;;
5965;SDS011;3009;43.224;27.976;2024-03-06T13:25:12;22.80;;;13.00;;
5965;SDS011;3009;43.224;27.976;2024-03-06T13:27:41;19.03;;;12.00;;
5965;SDS011;3009;43.224;27.976;2024-03-06T13:30:12;19.60;;;10.53;;
5965;SDS011;3009;43.224;27.976;2024-03-06T13:32:41;19.60;;;11.27;;
5965;SDS011;3009;43.224;27.976;2024-03-06T13:35:12;17.27;;;12.40;;
5965;SDS011;3009;43.224;27.976;2024-03-06T13:37:40;25.30;;;18.93;;
5965;SDS011;3009;43.224;27.976;2024-03-06T13:40:09;23.60;;;14.87;;
5965;SDS011;3009;43.224;27.976;2024-03-06T13:42:40;23.30;;;14.90;;
5965;SDS011;3009;43.224;27.976;2024-03-06T13:45:09;27.67;;;19.10;;
5965;SDS011;3009;43.224;27.976;2024-03-06T13:47:41;24.30;;;15.97;;
5965;SDS011;3009;43.224;27.976;2024-03-06T13:50:11;25.37;;;14.67;;
5965;SDS011;3009;43.224;27.976;2024-03-06T13:52:41;33.07;;;16.67;;
5965;SDS011;3009;43.224;27.976;2024-03-06T13:55:10;28.93;;;13.93;;
5965;SDS011;3009;43.224;27.976;2024-03-06T13:57:39;22.90;;;12.40;;
5965;SDS011;3009;43.224;27.976;2024-03-06T14:00:08;22.33;;;12.87;;
5965;SDS011;3009;43.224;27.976;2024-03-06T14:02:46;23.83;;;13.10;;
5965;SDS011;3009;43.224;27.976;2024-03-06T14:05:14;34.03;;;13.63;;
5965;SDS011;3009;43.224;27.976;2024-03-06T14:07:43;19.40;;;12.20;;
5965;SDS011;3009;43.224;27.976;2024-03-06T14:10:11;28.30;;;14.27;;
5965;SDS011;3009;43.224;27.976;2024-03-06T14:12:40;19.57;;;12.63;;
5965;SDS011;3009;43.224;27.976;2024-03-06T14:15:09;20.93;;;13.50;;
5965;SDS011;3009;43.224;27.976;2024-03-06T14:17:39;26.90;;;14.97;;
5965;SDS011;3009;43.224;27.976;2024-03-06T14:20:10;22.50;;;13.73;;
5965;SDS011;3009;43.224;27.976;2024-03-06T14:22:40;24.07;;;13.30;;
5965;SDS011;3009;43.224;27.976;2024-03-06T14:25:08;25.43;;;13.37;;
5965;SDS011;3009;43.224;27.976;2024-03-06T14:27:37;21.70;;;12.70;;
5965;SDS011;3009;43.224;27.976;2024-03-06T14:30:06;19.10;;;11.83;;
5965;SDS011;3009;43.224;27.976;2024-03-06T14:32:37;16.30;;;11.20;;
5965;SDS011;3009;43.224;27.976;2024-03-06T14:35:07;19.87;;;12.40;;
5965;SDS011;3009;43.224;27.976;2024-03-06T14:37:38;28.40;;;13.30;;
5965;SDS011;3009;43.224;27.976;2024-03-06T14:40:07;25.23;;;12.20;;
5965;SDS011;3009;43.224;27.976;2024-03-06T14:42:36;28.57;;;13.50;;
5965;SDS011;3009;43.224;27.976;2024-03-06T14:45:05;28.63;;;13.27;;
5965;SDS011;3009;43.224;27.976;2024-03-06T14:47:35;22.77;;;12.73;;
5965;SDS011;3009;43.224;27.976;2024-03-06T14:50:04;21.50;;;12.57;;
5965;SDS011;3009;43.224;27.976;2024-03-06T14:52:33;20.40;;;11.97;;
5965;SDS011;3009;43.224;27.976;2024-03-06T14:55:04;22.80;;;13.63;;
5965;SDS011;3009;43.224;27.976;2024-03-06T14:57:35;19.43;;;11.63;;
5965;SDS011;3009;43.224;27.976;2024-03-06T15:00:04;22.07;;;13.63;;
5965;SDS011;3009;43.224;27.976;2024-03-06T15:02:35;24.30;;;12.90;;
5965;SDS011;3009;43.224;27.976;2024-03-06T15:05:04;20.80;;;11.43;;
5965;SDS011;3009;43.224;27.976;2024-03-06T15:07:33;19.87;;;10.77;;